Terminal Aerodrome Forecast
Issued by NWS

Home | Current Version | Previous Version | Text Only | Print | Product List | Glossary On
Versions: 1 2 3 4 5 6 7 8 9 10 11 12 13 14 15 16 17 18 19 20 21 22 23 24 25 26 27 28
010
FTUS46 KLOX 050543
TAFLAX
TAF
KLAX 050543Z 0506/0612 VRB03KT P6SM BKN250
     FM051100 10004KT 2SM BR OVC003
     FM051500 VRB03KT 5SM BR BKN007
     FM051700 VRB03KT 6SM HZ FEW010
     FM052000 26008KT P6SM SCT250
     FM060100 25007KT P6SM BKN012
     FM060900 VRB03KT P6SM OVC020=

USA.gov is the U.S. government's official web portal to all federal, state and local government web resources and services.